createdAt,value
2018-04-01T00:01:30.367Z,9.00
2018-04-01T00:03:57.440Z,9.00
2018-04-01T00:06:24.503Z,8.90
2018-04-01T00:08:52.440Z,8.90
2018-04-01T00:11:19.471Z,8.80
2018-04-01T00:13:46.518Z,8.80
2018-04-01T00:16:13.587Z,8.80
2018-04-01T00:18:40.662Z,8.80
2018-04-01T00:21:08.478Z,8.70
2018-04-01T00:23:35.555Z,8.70
2018-04-01T00:26:02.620Z,8.70
2018-04-01T00:28:30.458Z,8.50
2018-04-01T00:30:57.501Z,8.50
2018-04-01T00:33:24.589Z,8.50
2018-04-01T00:35:51.678Z,8.50
2018-04-01T00:38:18.759Z,8.40
2018-04-01T00:40:45.903Z,8.40
2018-04-01T00:43:12.971Z,8.40
2018-04-01T00:45:40.031Z,8.40
2018-04-01T00:48:07.122Z,8.40
2018-04-01T00:50:34.178Z,8.30
2018-04-01T00:53:02.758Z,8.30
2018-04-01T00:55:29.916Z,8.30
2018-04-01T00:57:56.978Z,8.30
2018-04-01T01:00:24.874Z,8.30
2018-04-01T01:02:51.939Z,8.30
2018-04-01T01:05:19.208Z,8.30
2018-04-01T01:07:46.287Z,8.30
2018-04-01T01:10:14.197Z,8.30
2018-04-01T01:12:41.270Z,8.20
2018-04-01T01:15:08.311Z,8.20
2018-04-01T01:17:35.385Z,8.20
2018-04-01T01:20:02.415Z,8.20
2018-04-01T01:22:29.486Z,8.30
2018-04-01T01:24:57.335Z,8.30
2018-04-01T01:27:24.602Z,8.30
2018-04-01T01:29:52.487Z,8.20
2018-04-01T01:32:19.578Z,8.30
2018-04-01T01:34:46.723Z,8.30
2018-04-01T01:37:13.765Z,8.30
2018-04-01T01:39:40.828Z,8.30
2018-04-01T01:42:07.872Z,8.20
2018-04-01T01:44:35.042Z,8.20
2018-04-01T01:47:03.608Z,8.20
2018-04-01T01:49:30.651Z,8.20
2018-04-01T01:51:57.732Z,8.10
2018-04-01T01:54:25.551Z,8.00
2018-04-01T01:56:52.631Z,7.90
2018-04-01T01:59:19.662Z,8.00
2018-04-01T02:01:46.742Z,8.00
2018-04-01T02:04:14.554Z,7.80
2018-04-01T02:06:41.695Z,7.80
2018-04-01T02:09:08.756Z,7.90
2018-04-01T02:11:35.827Z,7.80
2018-04-01T02:14:02.900Z,7.80
2018-04-01T02:16:30.698Z,7.80
2018-04-01T02:18:57.780Z,7.70
2018-04-01T02:21:24.831Z,7.70
2018-04-01T02:23:51.931Z,7.60
2018-04-01T02:26:18.988Z,7.70
2018-04-01T02:28:46.078Z,7.60
2018-04-01T02:31:13.137Z,7.60
2018-04-01T02:33:41.032Z,7.60
2018-04-01T02:36:08.107Z,7.60
2018-04-01T02:38:35.202Z,7.50
2018-04-01T02:41:03.011Z,7.50
2018-04-01T02:43:30.080Z,7.50
2018-04-01T02:45:57.198Z,7.40
2018-04-01T02:48:24.392Z,7.40
2018-04-01T02:50:52.328Z,7.40
2018-04-01T02:53:19.379Z,7.40
2018-04-01T02:55:46.661Z,7.50
2018-04-01T02:58:14.508Z,7.50
2018-04-01T03:00:41.732Z,7.40
2018-04-01T03:03:08.807Z,7.50
2018-04-01T03:05:35.889Z,7.50
2018-04-01T03:08:03.047Z,7.50
2018-04-01T03:10:30.114Z,7.50
2018-04-01T03:12:57.242Z,7.40
2018-04-01T03:15:24.254Z,7.30
2018-04-01T03:17:51.304Z,7.30
2018-04-01T03:20:18.378Z,7.10
2018-04-01T03:22:45.455Z,7.20
2018-04-01T03:25:12.520Z,7.00
2018-04-01T03:27:39.568Z,6.90
2018-04-01T03:30:06.642Z,7.00
2018-04-01T03:32:34.444Z,7.00
2018-04-01T03:35:01.514Z,7.00
2018-04-01T03:37:28.587Z,7.00
2018-04-01T03:39:55.674Z,7.00
2018-04-01T03:42:22.734Z,6.90
2018-04-01T03:44:49.838Z,7.00
2018-04-01T03:47:17.854Z,7.10
2018-04-01T03:49:45.058Z,7.10
2018-04-01T03:52:12.934Z,7.10
2018-04-01T03:54:40.744Z,7.10
2018-04-01T03:57:07.819Z,7.00
2018-04-01T03:59:34.859Z,7.00
2018-04-01T04:02:01.922Z,7.00
2018-04-01T04:04:28.996Z,7.00
2018-04-01T04:06:56.143Z,7.00
2018-04-01T04:09:23.223Z,7.10
2018-04-01T04:11:50.350Z,7.00
2018-04-01T04:14:17.395Z,7.10
2018-04-01T04:16:44.518Z,7.10
2018-04-01T04:19:12.531Z,7.20
2018-04-01T04:21:39.631Z,7.20
2018-04-01T04:24:07.655Z,7.10
2018-04-01T04:26:34.800Z,7.10
2018-04-01T04:29:01.872Z,7.10
2018-04-01T04:31:28.927Z,7.10
2018-04-01T04:33:55.988Z,7.20
2018-04-01T04:36:23.796Z,7.00
2018-04-01T04:38:50.835Z,7.00
2018-04-01T04:41:17.906Z,7.10
2018-04-01T04:43:44.938Z,7.10
2018-04-01T04:46:12.027Z,7.20
2018-04-01T04:48:39.071Z,7.20
2018-04-01T04:51:06.149Z,7.10
2018-04-01T04:53:33.202Z,7.30
2018-04-01T04:56:00.418Z,7.30
2018-04-01T04:58:27.466Z,7.30
2018-04-01T05:00:54.534Z,6.30
2018-04-01T05:03:22.342Z,7.30
2018-04-01T05:05:49.412Z,7.30
2018-04-01T05:08:16.487Z,7.30
2018-04-01T05:10:44.345Z,7.30
2018-04-01T05:13:12.167Z,7.10
2018-04-01T05:15:39.266Z,7.10
2018-04-01T05:18:07.115Z,7.20
2018-04-01T05:20:34.159Z,7.20
2018-04-01T05:23:01.270Z,7.30
2018-04-01T05:25:28.319Z,7.20
2018-04-01T05:27:55.399Z,7.30
2018-04-01T05:30:22.474Z,7.30
2018-04-01T05:32:49.516Z,7.30
2018-04-01T05:35:17.522Z,7.20
2018-04-01T05:37:44.562Z,7.20
2018-04-01T05:40:11.641Z,7.30
2018-04-01T05:42:38.675Z,7.30
2018-04-01T05:45:05.750Z,7.30
2018-04-01T05:47:33.587Z,7.20
2018-04-01T05:50:00.718Z,7.20
2018-04-01T05:52:27.907Z,7.20
2018-04-01T05:54:56.491Z,7.20
2018-04-01T05:57:23.575Z,7.30
2018-04-01T05:59:50.654Z,7.30
2018-04-01T06:02:17.831Z,7.30
2018-04-01T06:04:44.908Z,7.20
2018-04-01T06:07:11.951Z,7.20
2018-04-01T06:09:39.035Z,7.20
2018-04-01T06:12:06.127Z,7.30
2018-04-01T06:14:33.931Z,7.10
2018-04-01T06:17:01.003Z,7.20
2018-04-01T06:19:28.190Z,7.20
2018-04-01T06:21:56.054Z,7.30
2018-04-01T06:24:23.855Z,7.20
2018-04-01T06:26:50.926Z,7.20
2018-04-01T06:29:18.010Z,7.20
2018-04-01T06:31:45.883Z,7.40
2018-04-01T06:34:13.699Z,7.20
2018-04-01T06:36:40.859Z,7.10
2018-04-01T06:39:07.910Z,7.20
2018-04-01T06:41:35.189Z,7.20
2018-04-01T06:44:02.992Z,7.30
2018-04-01T06:46:30.069Z,7.20
2018-04-01T06:48:57.171Z,7.40
2018-04-01T06:51:24.246Z,7.50
2018-04-01T06:53:51.278Z,7.50
2018-04-01T06:56:18.330Z,7.60
2018-04-01T06:58:45.625Z,7.50
2018-04-01T07:01:12.883Z,7.70
2018-04-01T07:03:39.968Z,8.00
2018-04-01T07:06:07.051Z,8.30
2018-04-01T07:08:34.083Z,8.00
2018-04-01T07:11:01.233Z,7.90
2018-04-01T07:13:28.322Z,7.80
2018-04-01T07:15:55.400Z,8.40
2018-04-01T07:18:22.451Z,9.90
2018-04-01T07:20:49.529Z,11.30
2018-04-01T07:23:16.563Z,9.90
2018-04-01T07:25:43.704Z,8.70
2018-04-01T07:28:10.743Z,8.30
2018-04-01T07:30:37.847Z,8.20
2018-04-01T07:33:04.934Z,8.00
2018-04-01T07:35:32.089Z,8.00
2018-04-01T07:37:59.160Z,7.90
2018-04-01T07:40:26.342Z,7.40
2018-04-01T07:42:54.190Z,6.60
2018-04-01T07:45:22.934Z,6.50
2018-04-01T07:47:50.003Z,6.50
2018-04-01T07:50:17.050Z,6.30
2018-04-01T07:52:44.190Z,6.10
2018-04-01T07:55:11.239Z,6.20
2018-04-01T07:57:38.446Z,6.20
2018-04-01T08:00:06.251Z,6.70
2018-04-01T08:02:33.444Z,6.70
2018-04-01T08:05:00.516Z,6.80
2018-04-01T08:07:27.636Z,6.90
2018-04-01T08:09:54.726Z,6.80
2018-04-01T08:12:21.866Z,6.50
2018-04-01T08:14:48.941Z,6.60
2018-04-01T08:17:15.979Z,6.80
2018-04-01T08:19:43.060Z,7.10
2018-04-01T08:22:10.218Z,7.10
2018-04-01T08:24:37.294Z,7.20
2018-04-01T08:27:04.355Z,7.00
2018-04-01T08:29:31.440Z,7.00
2018-04-01T08:31:58.498Z,6.90
2018-04-01T08:34:25.575Z,7.10
2018-04-01T08:36:53.382Z,7.00
2018-04-01T08:39:20.619Z,7.00
2018-04-01T08:41:47.663Z,7.10
2018-04-01T08:44:14.755Z,7.20
2018-04-01T08:46:41.815Z,7.40
2018-04-01T08:49:09.631Z,7.60
2018-04-01T08:51:36.723Z,7.60
2018-04-01T08:54:03.822Z,7.80
2018-04-01T08:56:30.906Z,7.80
2018-04-01T08:58:57.939Z,7.80
2018-04-01T09:01:25.043Z,7.80
2018-04-01T09:03:52.096Z,7.90
2018-04-01T09:06:19.271Z,8.00
2018-04-01T09:08:46.318Z,7.90
2018-04-01T09:11:13.463Z,8.00
2018-04-01T09:13:40.648Z,8.20
2018-04-01T09:16:07.702Z,8.20
2018-04-01T09:18:35.554Z,8.40
2018-04-01T09:21:02.589Z,8.40
2018-04-01T09:23:29.668Z,8.20
2018-04-01T09:25:57.527Z,7.90
2018-04-01T09:28:25.380Z,7.80
2018-04-01T09:30:52.420Z,7.80
2018-04-01T09:33:19.495Z,8.40
2018-04-01T09:35:47.303Z,8.80
2018-04-01T09:38:14.418Z,8.70
2018-04-01T09:40:41.502Z,8.40
2018-04-01T09:43:08.626Z,8.20
2018-04-01T09:45:36.560Z,8.10
2018-04-01T09:48:04.402Z,8.00
2018-04-01T09:50:31.640Z,8.00
2018-04-01T09:52:58.875Z,9.00
2018-04-01T09:55:25.934Z,10.20
2018-04-01T09:57:53.116Z,10.30
2018-04-01T10:00:26.006Z,9.70
2018-04-01T10:02:54.390Z,9.60
2018-04-01T10:05:22.842Z,9.60
2018-04-01T10:07:50.579Z,9.60
2018-04-01T10:10:18.299Z,9.60
2018-04-01T10:12:45.863Z,9.00
2018-04-01T10:15:13.456Z,9.00
2018-04-01T10:17:41.016Z,8.80
2018-04-01T10:20:08.745Z,8.90
2018-04-01T10:22:37.198Z,9.10
2018-04-01T10:25:05.735Z,8.50
2018-04-01T10:27:33.316Z,8.40
2018-04-01T10:30:00.900Z,8.90
2018-04-01T10:32:29.307Z,8.90
2018-04-01T10:34:57.630Z,9.20
2018-04-01T10:37:25.191Z,9.20
2018-04-01T10:39:52.806Z,9.60
2018-04-01T10:42:20.394Z,9.40
2018-04-01T10:44:48.027Z,9.50
2018-04-01T10:47:15.622Z,9.50
2018-04-01T10:49:43.971Z,9.10
2018-04-01T10:52:11.683Z,9.00
2018-04-01T10:54:39.539Z,9.20
2018-04-01T10:57:06.700Z,9.20
2018-04-01T10:59:34.508Z,9.00
2018-04-01T11:02:01.579Z,8.90
2018-04-01T11:04:28.631Z,8.70
2018-04-01T11:06:55.722Z,8.50
2018-04-01T11:09:22.847Z,8.30
2018-04-01T11:11:50.707Z,6.30
2018-04-01T11:14:17.764Z,6.20
2018-04-01T11:16:45.619Z,6.00
2018-04-01T11:19:12.668Z,6.00
2018-04-01T11:21:39.749Z,6.10
2018-04-01T11:24:06.818Z,6.30
2018-04-01T11:26:33.915Z,6.90
2018-04-01T11:29:01.940Z,7.30
2018-04-01T11:31:29.080Z,7.30
2018-04-01T11:33:56.122Z,7.60
2018-04-01T11:36:23.191Z,7.60
2018-04-01T11:38:50.227Z,7.70
2018-04-01T11:41:17.472Z,7.60
2018-04-01T11:43:44.521Z,7.60
2018-04-01T11:46:11.719Z,7.60
2018-04-01T11:48:39.575Z,8.00
2018-04-01T11:51:06.779Z,8.00
2018-04-01T11:53:33.857Z,7.90
2018-04-01T11:56:00.928Z,8.20
2018-04-01T11:58:29.059Z,8.10
2018-04-01T12:00:56.108Z,8.00
2018-04-01T12:03:23.174Z,8.10
2018-04-01T12:05:50.294Z,8.00
2018-04-01T12:08:17.431Z,8.10
2018-04-01T12:10:44.468Z,8.80
2018-04-01T12:13:11.537Z,9.00
2018-04-01T12:15:38.584Z,9.30
2018-04-01T12:18:05.699Z,9.60
2018-04-01T12:20:32.839Z,9.20
2018-04-01T12:22:59.957Z,8.80
2018-04-01T12:25:27.067Z,8.50
2018-04-01T12:27:54.159Z,8.30
2018-04-01T12:30:21.206Z,8.60
2018-04-01T12:32:48.254Z,8.70
2018-04-01T12:35:15.379Z,8.50
2018-04-01T12:37:42.431Z,8.40
2018-04-01T12:40:09.595Z,8.50
2018-04-01T12:42:36.646Z,8.50
2018-04-01T12:45:04.500Z,9.30
2018-04-01T12:47:31.575Z,9.30
2018-04-01T12:49:58.662Z,10.10
2018-04-01T12:52:25.722Z,9.90
2018-04-01T12:54:52.767Z,9.20
2018-04-01T12:57:19.848Z,8.90
2018-04-01T12:59:47.811Z,8.70
2018-04-01T13:02:15.638Z,8.60
2018-04-01T13:04:42.687Z,8.60
2018-04-01T13:07:09.779Z,8.80
2018-04-01T13:09:37.635Z,8.80
2018-04-01T13:12:05.466Z,8.90
2018-04-01T13:14:32.538Z,8.90
2018-04-01T13:16:59.614Z,8.40
2018-04-01T13:19:26.658Z,7.60
2018-04-01T13:21:53.742Z,6.70
2018-04-01T13:24:20.823Z,6.50
2018-04-01T13:26:47.942Z,6.40
2018-04-01T13:29:14.984Z,6.40
2018-04-01T13:31:42.038Z,6.40
2018-04-01T13:34:09.102Z,6.50
2018-04-01T13:36:36.188Z,6.20
2018-04-01T13:39:03.328Z,6.40
2018-04-01T13:41:31.136Z,7.00
2018-04-01T13:43:58.230Z,7.00
2018-04-01T13:46:26.034Z,7.20
2018-04-01T13:48:53.255Z,7.20
2018-04-01T13:51:21.066Z,7.70
2018-04-01T13:53:48.140Z,7.70
2018-04-01T13:56:15.202Z,7.60
2018-04-01T13:58:43.044Z,9.20
2018-04-01T14:01:10.087Z,9.20
2018-04-01T14:03:37.197Z,9.30
2018-04-01T14:06:04.506Z,10.00
2018-04-01T14:08:31.551Z,9.70
2018-04-01T14:10:58.630Z,9.60
2018-04-01T14:13:25.671Z,9.80
2018-04-01T14:15:52.765Z,9.70
2018-04-01T14:18:19.804Z,10.70
2018-04-01T14:20:46.926Z,9.40
2018-04-01T14:23:14.713Z,10.90
2018-04-01T14:25:41.803Z,10.90
2018-04-01T14:28:09.623Z,11.60
2018-04-01T14:30:36.691Z,11.60
2018-04-01T14:33:03.755Z,10.90
2018-04-01T14:35:30.830Z,11.40
2018-04-01T14:37:57.881Z,11.80
2018-04-01T14:40:25.072Z,11.30
2018-04-01T14:42:52.151Z,10.40
2018-04-01T14:45:20.167Z,10.80
2018-04-01T14:47:47.292Z,10.70
2018-04-01T14:50:14.412Z,11.20
2018-04-01T14:52:41.459Z,13.00
2018-04-01T14:55:08.553Z,12.60
2018-04-01T14:57:35.635Z,11.40
2018-04-01T15:00:02.697Z,12.30
2018-04-01T15:02:29.984Z,11.50
2018-04-01T15:04:57.031Z,10.50
2018-04-01T15:07:24.114Z,10.30
2018-04-01T15:09:51.189Z,10.10
2018-04-01T15:12:18.251Z,10.20
2018-04-01T15:14:46.250Z,10.10
2018-04-01T15:17:13.356Z,10.10
2018-04-01T15:19:41.215Z,10.10
2018-04-01T15:22:09.043Z,10.50
2018-04-01T15:24:36.114Z,10.40
2018-04-01T15:27:03.194Z,10.00
2018-04-01T15:29:31.028Z,9.90
2018-04-01T15:31:58.143Z,9.90
2018-04-01T15:34:25.199Z,9.80
2018-04-01T15:36:52.286Z,9.70
2018-04-01T15:39:20.249Z,9.50
2018-04-01T15:41:48.123Z,9.60
2018-04-01T15:44:15.927Z,9.60
2018-04-01T15:46:43.020Z,9.60
2018-04-01T15:49:10.091Z,9.40
2018-04-01T15:51:37.923Z,8.90
2018-04-01T15:54:05.010Z,8.80
2018-04-01T15:56:32.083Z,8.40
2018-04-01T15:58:59.156Z,8.40
2018-04-01T16:01:26.207Z,9.10
2018-04-01T16:03:54.819Z,10.10
2018-04-01T16:06:22.645Z,10.70
2018-04-01T16:08:49.696Z,10.60
2018-04-01T16:11:16.796Z,10.30
2018-04-01T16:13:43.834Z,9.80
2018-04-01T16:16:11.700Z,9.60
2018-04-01T16:18:39.530Z,9.80
2018-04-01T16:21:06.849Z,9.80
2018-04-01T16:23:33.907Z,9.70
2018-04-01T16:26:00.947Z,9.40
2018-04-01T16:28:28.027Z,9.40
2018-04-01T16:30:55.229Z,9.10
2018-04-01T16:33:22.303Z,9.20
2018-04-01T16:35:49.366Z,9.10
2018-04-01T16:38:16.628Z,8.90
2018-04-01T16:40:43.677Z,9.00
2018-04-01T16:43:11.507Z,8.90
2018-04-01T16:45:38.547Z,8.80
2018-04-01T16:48:05.594Z,8.90
2018-04-01T16:50:32.686Z,9.00
2018-04-01T16:53:00.594Z,9.10
2018-04-01T16:55:27.733Z,9.10
2018-04-01T16:57:54.906Z,8.90
2018-04-01T17:00:22.100Z,8.80
2018-04-01T17:02:49.947Z,8.80
2018-04-01T17:05:17.014Z,8.80
2018-04-01T17:07:44.868Z,8.80
2018-04-01T17:10:12.035Z,8.70
2018-04-01T17:12:39.272Z,8.60
2018-04-01T17:15:07.172Z,8.60
2018-04-01T17:17:34.965Z,8.50
2018-04-01T17:20:02.062Z,8.50
2018-04-01T17:22:29.156Z,8.60
2018-04-01T17:24:56.190Z,8.50
2018-04-01T17:27:23.275Z,8.40
2018-04-01T17:29:50.458Z,8.40
2018-04-01T17:32:17.669Z,8.40
2018-04-01T17:34:44.698Z,8.40
2018-04-01T17:39:33.607Z,8.40
2018-04-01T17:42:01.582Z,8.40
2018-04-01T17:44:29.422Z,8.40
2018-04-01T17:46:56.616Z,8.40
2018-04-01T17:49:23.786Z,8.20
2018-04-01T17:51:50.855Z,7.90
2018-04-01T17:54:17.943Z,7.50
2018-04-01T17:56:45.904Z,7.20
2018-04-01T17:59:13.708Z,6.90
2018-04-01T18:01:40.783Z,6.90
2018-04-01T18:04:07.862Z,6.80
2018-04-01T18:06:35.707Z,6.60
2018-04-01T18:09:02.935Z,6.60
2018-04-01T18:11:30.121Z,6.70
2018-04-01T18:13:58.135Z,6.50
2018-04-01T18:16:25.242Z,6.50
2018-04-01T18:18:53.256Z,6.50
2018-04-01T18:21:20.450Z,6.50
2018-04-01T18:23:47.523Z,6.50
2018-04-01T18:26:14.555Z,6.50
2018-04-01T18:28:42.572Z,6.50
2018-04-01T18:31:09.614Z,6.50
2018-04-01T18:33:36.695Z,6.40
2018-04-01T18:36:05.252Z,6.50
2018-04-01T18:38:32.319Z,6.50
2018-04-01T18:40:59.406Z,6.30
2018-04-01T18:43:26.459Z,6.40
2018-04-01T18:45:53.586Z,6.40
2018-04-01T18:48:21.409Z,6.50
2018-04-01T18:50:48.491Z,6.40
2018-04-01T18:53:16.347Z,6.50
2018-04-01T18:55:43.391Z,6.50
2018-04-01T18:58:10.542Z,6.50
2018-04-01T19:00:37.579Z,6.60
2018-04-01T19:03:04.625Z,6.50
2018-04-01T19:05:31.703Z,6.60
2018-04-01T19:07:59.533Z,6.50
2018-04-01T19:10:26.612Z,6.50
2018-04-01T19:12:54.455Z,6.60
2018-04-01T19:15:21.551Z,6.50
2018-04-01T19:17:49.166Z,6.50
2018-04-01T19:20:16.838Z,6.50
2018-04-01T19:22:45.248Z,6.50
2018-04-01T19:25:12.833Z,6.50
2018-04-01T19:27:40.434Z,6.60
2018-04-01T19:30:08.864Z,6.50
2018-04-01T19:32:36.469Z,6.50
2018-04-01T19:35:04.796Z,6.50
2018-04-01T19:37:32.461Z,6.50
2018-04-01T19:40:00.218Z,6.40
2018-04-01T19:42:28.701Z,6.40
2018-04-01T19:44:56.313Z,6.40
2018-04-01T19:47:24.639Z,6.30
2018-04-01T19:49:52.387Z,6.30
2018-04-01T19:52:19.977Z,6.30
2018-04-01T19:54:47.712Z,6.30
2018-04-01T19:57:15.297Z,6.20
2018-04-01T19:59:42.890Z,6.20
2018-04-01T20:02:11.232Z,6.20
2018-04-01T20:04:38.835Z,6.20
2018-04-01T20:07:07.468Z,6.20
2018-04-01T20:09:35.048Z,6.20
2018-04-01T20:12:02.658Z,6.20
2018-04-01T20:14:30.242Z,6.20
2018-04-01T20:16:57.846Z,6.20
2018-04-01T20:19:26.177Z,6.10
2018-04-01T20:21:53.792Z,6.10
2018-04-01T20:24:22.160Z,6.20
2018-04-01T20:26:50.539Z,6.20
2018-04-01T20:29:18.947Z,6.20
2018-04-01T20:31:46.630Z,6.20
2018-04-01T20:34:14.424Z,6.20
2018-04-01T20:36:42.011Z,6.40
2018-04-01T20:39:10.418Z,6.20
2018-04-01T20:41:38.063Z,6.20
2018-04-01T20:44:05.758Z,6.60
2018-04-01T20:46:33.526Z,6.20
2018-04-01T20:49:01.979Z,6.10
2018-04-01T20:51:29.602Z,6.10
2018-04-01T20:53:59.308Z,6.20
2018-04-01T20:56:26.972Z,6.10
2018-04-01T20:58:56.066Z,6.20
2018-04-01T21:01:24.754Z,6.20
2018-04-01T21:03:53.117Z,6.20
2018-04-01T21:06:20.762Z,6.20
2018-04-01T21:08:48.508Z,6.20
2018-04-01T21:11:16.374Z,6.20
2018-04-01T21:13:44.195Z,6.20
2018-04-01T21:16:12.567Z,6.30
2018-04-01T21:18:40.259Z,6.30
2018-04-01T21:21:07.915Z,6.30
2018-04-01T21:23:35.663Z,6.40
2018-04-01T21:26:03.235Z,6.30
2018-04-01T21:28:30.838Z,6.40
2018-04-01T21:30:58.406Z,6.40
2018-04-01T21:33:26.012Z,6.40
2018-04-01T21:35:53.602Z,6.40
2018-04-01T21:38:21.150Z,6.40
2018-04-01T21:40:48.739Z,6.40
2018-04-01T21:43:16.299Z,6.30
2018-04-01T21:45:43.903Z,6.40
2018-04-01T21:48:11.487Z,6.40
2018-04-01T21:50:39.095Z,6.30
2018-04-01T21:53:07.442Z,6.20
2018-04-01T21:55:35.122Z,6.20
2018-04-01T21:58:03.500Z,6.20
2018-04-01T22:00:31.916Z,6.20
2018-04-01T22:02:59.580Z,6.20
2018-04-01T22:05:28.215Z,6.20
2018-04-01T22:07:55.791Z,6.20
2018-04-01T22:10:24.333Z,6.20
2018-04-01T22:12:51.901Z,6.20
2018-04-01T22:15:19.480Z,6.20
2018-04-01T22:17:47.872Z,6.20
2018-04-01T22:20:16.238Z,6.20
2018-04-01T22:22:56.557Z,6.20
2018-04-01T22:25:24.176Z,6.20
2018-04-01T22:27:51.807Z,6.10
2018-04-01T22:30:20.171Z,6.20
2018-04-01T22:32:47.859Z,6.20
2018-04-01T22:35:16.203Z,6.20
2018-04-01T22:37:43.794Z,6.10
2018-04-01T22:40:12.177Z,6.20
2018-04-01T22:42:40.543Z,6.10
2018-04-01T22:45:08.944Z,6.20
2018-04-01T22:47:36.558Z,6.20
2018-04-01T22:50:04.123Z,6.20
2018-04-01T22:52:31.715Z,6.10
2018-04-01T22:55:00.032Z,6.10
2018-04-01T22:57:27.783Z,6.00
2018-04-01T22:59:55.385Z,6.00
2018-04-01T23:02:23.010Z,6.00
2018-04-01T23:04:50.575Z,6.00
2018-04-01T23:07:18.131Z,5.90
2018-04-01T23:09:45.735Z,5.90
2018-04-01T23:12:14.116Z,5.80
2018-04-01T23:14:42.533Z,5.80
2018-04-01T23:17:10.179Z,5.80
2018-04-01T23:19:37.918Z,5.70
2018-04-01T23:22:06.310Z,5.70
2018-04-01T23:24:34.042Z,5.70
2018-04-01T23:27:01.671Z,5.80
2018-04-01T23:29:29.234Z,5.60
2018-04-01T23:31:56.918Z,5.60
2018-04-01T23:34:24.497Z,5.60
2018-04-01T23:36:52.882Z,5.60
2018-04-01T23:39:20.546Z,5.60
2018-04-01T23:41:48.224Z,5.50
2018-04-01T23:44:15.773Z,5.50
2018-04-01T23:46:43.372Z,5.50
2018-04-01T23:49:10.940Z,5.50
2018-04-01T23:51:38.548Z,5.50
2018-04-01T23:54:06.121Z,5.50
2018-04-01T23:56:33.703Z,5.60
2018-04-01T23:59:01.285Z,5.60
